Garibaldi, Oregon
Current Conditions -  °F | °C
As of 5:15 AM on Wednesday 22 Oct 2014 (Local Time) from KTMK Reporting Station
Overcast Overcast  
Wind Chill: 61°   Ceiling: 2300
Heat Index: 61°   Visibility: 10mi
Dew Point: 55°   Wind: 18mph
Humidity: 82%   Direction: 180°S
Pressure: 29.74"   Gusts: 28mph
Location:  45.56°N, 123.91°W
Report Text: KTMK 221215Z AUTO 18016G24KT 10SM BKN023 OVC032 16/13 A2974 RMK AO2
Loading
Personal Weather Stations






























Interactive Weather Map
Tropical Storm Tracking
New forecast layout! Learn more

10-Day Weather Forecast

Advertisements
Track Severe Weather on mobile